Time;durP1;ratioP1;P1;durP2;ratioP2;P2;SDS_P1;SDS_P2;PMS_P1;PMS_P2;Temp;Humidity;BMP_temperature;BMP_pressure;BME280_temperature;BME280_humidity;BME280_pressure;Samples;Min_cycle;Max_cycle;Signal;HPM_P1;HPM_P2
2022/08/28 00:01:56;;;;;;;13.43;2.70;;;15.60;99.90;;;;;;7393776;19;20031;-79
2022/08/28 00:04:22;;;;;;;12.57;2.55;;;15.60;99.90;;;;;;7395879;19;20093;-79
2022/08/28 00:06:48;;;;;;;9.68;2.53;;;15.60;99.90;;;;;;7394162;19;20018;-79
2022/08/28 00:09:14;;;;;;;15.43;2.63;;;15.60;99.90;;;;;;7395054;19;20022;-79
2022/08/28 00:11:40;;;;;;;14.13;2.95;;;15.60;99.90;;;;;;7393659;19;20539;-79
2022/08/28 00:14:08;;;;;;;10.27;2.45;;;15.50;99.90;;;;;;7395416;19;20091;-79
2022/08/28 00:16:34;;;;;;;8.52;2.88;;;15.60;99.90;;;;;;7394736;19;20032;-79
2022/08/28 00:19:00;;;;;;;16.42;3.00;;;15.60;99.90;;;;;;7394630;19;20037;-79
2022/08/28 00:21:28;;;;;;;10.82;2.75;;;15.60;99.90;;;;;;7394255;19;20070;-79
2022/08/28 00:23:54;;;;;;;10.77;2.75;;;15.60;99.90;;;;;;7394725;19;20021;-79
2022/08/28 00:29:06;;;;;;;8.07;2.80;;;15.60;99.90;;;;;;7392699;19;20560;-79
2022/08/28 00:31:32;;;;;;;12.77;3.33;;;15.60;99.90;;;;;;7394377;19;20030;-79
2022/08/28 00:34:01;;;;;;;12.25;2.80;;;15.60;99.90;;;;;;7394525;19;20015;-79
2022/08/28 00:36:29;;;;;;;12.98;3.00;;;15.60;99.90;;;;;;7394323;19;20013;-79
2022/08/28 00:38:57;;;;;;;11.70;2.80;;;15.60;99.90;;;;;;7394338;19;20010;-79
2022/08/28 00:41:23;;;;;;;13.75;2.78;;;15.60;99.90;;;;;;7394195;19;20347;-79
2022/08/28 00:43:49;;;;;;;11.93;2.90;;;15.60;99.90;;;;;;7398554;19;20018;-79
2022/08/28 00:46:21;;;;;;;11.95;3.05;;;15.50;99.90;;;;;;7393567;19;20029;-79
2022/08/28 00:48:48;;;;;;;13.27;3.75;;;15.50;99.90;;;;;;7393725;19;20038;-79
2022/08/28 00:54:01;;;;;;;12.05;3.22;;;15.50;99.90;;;;;;7393999;19;20066;-79
2022/08/28 00:56:29;;;;;;;11.15;2.78;;;15.40;99.90;;;;;;7392505;19;20010;-79
2022/08/28 00:58:58;;;;;;;8.30;2.85;;;15.40;99.90;;;;;;7393636;19;20010;-80
2022/08/28 01:01:24;;;;;;;11.85;3.00;;;15.30;99.90;;;;;;7393612;19;20017;-79
2022/08/28 01:03:50;;;;;;;11.75;3.10;;;15.40;99.90;;;;;;7392122;19;20011;-79
2022/08/28 01:06:18;;;;;;;9.70;3.13;;;15.40;99.90;;;;;;7392733;19;20018;-80
2022/08/28 01:08:46;;;;;;;12.00;3.33;;;15.30;99.90;;;;;;7393637;19;20014;-79
2022/08/28 01:11:13;;;;;;;11.75;3.08;;;15.30;99.90;;;;;;7393693;19;20028;-79
2022/08/28 01:13:45;;;;;;;12.07;3.17;;;15.30;99.90;;;;;;7393731;19;20018;-79
2022/08/28 01:16:13;;;;;;;15.73;3.30;;;15.30;99.90;;;;;;7393136;19;20344;-79
2022/08/28 01:18:41;;;;;;;11.48;2.90;;;15.20;99.90;;;;;;7392462;19;20084;-79
2022/08/28 01:21:28;;;;;;;11.80;2.60;;;15.20;99.90;;;;;;7391300;19;20010;-80
2022/08/28 01:24:01;;;;;;;15.27;3.08;;;15.20;99.90;;;;;;7393371;19;20022;-79
2022/08/28 01:26:28;;;;;;;10.73;2.75;;;15.20;99.90;;;;;;7391818;19;20023;-79
2022/08/28 01:28:57;;;;;;;11.43;3.03;;;15.30;99.90;;;;;;7391075;19;20010;-79
2022/08/28 01:31:25;;;;;;;10.70;3.30;;;15.30;99.90;;;;;;7392476;19;20497;-79
2022/08/28 01:33:51;;;;;;;10.93;3.08;;;15.30;99.90;;;;;;7393401;19;20011;-79
2022/08/28 01:36:17;;;;;;;9.15;2.60;;;15.30;99.90;;;;;;7393015;19;20015;-79
2022/08/28 01:38:48;;;;;;;10.57;2.90;;;15.30;99.90;;;;;;7392288;19;20021;-79
2022/08/28 01:41:14;;;;;;;8.55;2.67;;;15.20;99.90;;;;;;7393074;19;20014;-79
2022/08/28 01:43:41;;;;;;;15.13;3.30;;;15.30;99.90;;;;;;7394488;19;20349;-79
2022/08/28 01:46:09;;;;;;;9.93;2.55;;;15.20;99.90;;;;;;7390819;19;20344;-79
2022/08/28 01:48:40;;;;;;;13.10;3.03;;;15.20;99.90;;;;;;7392616;19;20077;-79
2022/08/28 01:51:07;;;;;;;8.10;2.90;;;15.20;99.90;;;;;;7391977;19;20021;-79
2022/08/28 01:53:33;;;;;;;11.57;3.10;;;15.20;99.90;;;;;;7392609;19;20011;-79
2022/08/28 01:56:00;;;;;;;8.98;2.60;;;15.30;99.90;;;;;;7392808;19;20021;-79
2022/08/28 01:58:27;;;;;;;13.48;2.80;;;15.30;99.90;;;;;;7390485;19;20015;-79
2022/08/28 02:00:53;;;;;;;7.30;2.53;;;15.20;99.90;;;;;;7390370;19;20018;-79
2022/08/28 02:03:20;;;;;;;12.35;3.08;;;15.30;99.90;;;;;;7392164;19;20316;-78
2022/08/28 02:05:46;;;;;;;11.07;2.70;;;15.30;99.90;;;;;;7399268;19;20132;-79
2022/08/28 02:08:12;;;;;;;10.48;2.80;;;15.30;99.90;;;;;;7399248;19;20074;-79
2022/08/28 02:10:40;;;;;;;8.93;2.70;;;15.20;99.90;;;;;;7399783;19;20013;-79
2022/08/28 02:13:07;;;;;;;9.52;2.50;;;15.20;99.90;;;;;;7399012;19;20011;-79
2022/08/28 02:15:34;;;;;;;8.60;2.63;;;15.20;99.90;;;;;;7399485;19;20010;-78
2022/08/28 02:18:00;;;;;;;8.75;2.72;;;15.20;99.90;;;;;;7397188;19;20048;-79
2022/08/28 02:20:27;;;;;;;9.68;2.70;;;15.20;99.90;;;;;;7396861;19;20014;-79
2022/08/28 02:22:55;;;;;;;11.35;3.13;;;15.20;99.90;;;;;;7399301;19;20028;-79
2022/08/28 02:25:22;;;;;;;9.13;2.97;;;15.10;99.90;;;;;;7398655;19;20042;-79
2022/08/28 02:27:48;;;;;;;12.27;2.47;;;15.10;99.90;;;;;;7396280;19;20010;-79
2022/08/28 02:30:16;;;;;;;8.05;2.92;;;15.00;99.90;;;;;;7396958;19;20037;-78
2022/08/28 02:32:44;;;;;;;11.43;3.13;;;15.00;99.90;;;;;;7398427;19;20022;-79
2022/08/28 02:35:13;;;;;;;10.20;2.95;;;15.00;99.90;;;;;;7398549;19;20037;-79
2022/08/28 02:37:41;;;;;;;10.68;2.75;;;15.00;99.90;;;;;;7398183;19;20030;-78
2022/08/28 02:40:08;;;;;;;11.68;3.08;;;15.00;99.90;;;;;;7398706;19;20037;-79
2022/08/28 02:42:33;;;;;;;8.75;2.80;;;15.10;99.90;;;;;;7400326;19;20022;-79
2022/08/28 02:44:59;;;;;;;14.48;3.53;;;15.20;99.90;;;;;;7398475;19;20031;-79
2022/08/28 02:47:25;;;;;;;8.68;2.90;;;15.20;99.90;;;;;;7396500;19;20356;-79
2022/08/28 02:49:51;;;;;;;9.88;3.05;;;15.10;99.90;;;;;;7397379;19;20021;-78
2022/08/28 02:52:18;;;;;;;10.52;2.58;;;15.10;99.90;;;;;;7398074;19;20016;-79
2022/08/28 02:54:46;;;;;;;10.65;2.83;;;15.10;99.90;;;;;;7397607;19;20100;-79
2022/08/28 02:57:13;;;;;;;12.55;3.22;;;15.10;99.90;;;;;;7398257;19;20017;-78
2022/08/28 02:59:39;;;;;;;9.32;3.20;;;15.10;99.90;;;;;;7396158;19;20018;-78
2022/08/28 03:02:06;;;;;;;8.05;2.50;;;15.00;99.90;;;;;;7397604;19;20376;-79
2022/08/28 03:04:36;;;;;;;9.75;3.05;;;15.00;99.90;;;;;;7397535;19;20413;-78
2022/08/28 03:07:03;;;;;;;10.45;3.05;;;15.00;99.90;;;;;;7395025;19;20074;-79
2022/08/28 03:09:29;;;;;;;10.18;3.67;;;15.00;99.90;;;;;;7396109;19;20023;-79
2022/08/28 03:11:55;;;;;;;11.90;3.20;;;15.00;99.90;;;;;;7397168;19;20015;-78
2022/08/28 03:14:22;;;;;;;12.23;3.33;;;15.00;99.90;;;;;;7395107;19;20021;-78
2022/08/28 03:16:48;;;;;;;8.90;3.17;;;15.00;99.90;;;;;;7397002;19;20488;-79
2022/08/28 03:19:15;;;;;;;14.57;3.13;;;15.00;99.90;;;;;;7395701;19;20028;-78
2022/08/28 03:21:41;;;;;;;15.32;3.45;;;15.00;99.90;;;;;;7396526;19;20011;-79
2022/08/28 03:24:07;;;;;;;10.55;3.10;;;15.00;99.90;;;;;;7396640;19;20021;-79
2022/08/28 03:26:32;;;;;;;9.40;3.10;;;15.00;99.90;;;;;;7396587;19;20011;-79
2022/08/28 03:28:59;;;;;;;11.55;3.67;;;15.00;99.90;;;;;;7394618;19;20010;-79
2022/08/28 03:31:27;;;;;;;9.43;3.90;;;15.00;99.90;;;;;;7396773;19;20053;-79
2022/08/28 03:33:54;;;;;;;11.35;3.72;;;15.00;99.90;;;;;;7395025;19;20021;-79
2022/08/28 03:36:25;;;;;;;9.93;4.32;;;15.00;99.90;;;;;;7396476;19;20062;-79
2022/08/28 03:38:54;;;;;;;9.02;4.00;;;15.00;99.90;;;;;;7395670;19;20384;-78
2022/08/28 03:41:22;;;;;;;11.02;3.20;;;15.00;99.90;;;;;;7398644;19;20094;-79
2022/08/28 03:43:48;;;;;;;11.18;3.60;;;15.00;99.90;;;;;;7396129;19;20221;-79
2022/08/28 03:46:18;;;;;;;9.02;2.65;;;15.00;99.90;;;;;;7394052;19;20011;-79
2022/08/28 03:48:44;;;;;;;12.27;3.70;;;15.00;99.90;;;;;;7394171;19;20010;-79
2022/08/28 03:51:16;;;;;;;9.38;2.78;;;15.00;99.90;;;;;;7395660;19;20374;-79
2022/08/28 03:53:42;;;;;;;11.13;2.53;;;15.00;99.90;;;;;;7396276;19;20010;-79
2022/08/28 03:56:15;;;;;;;9.85;2.97;;;14.90;99.90;;;;;;7395830;19;20011;-79
2022/08/28 03:58:42;;;;;;;13.18;3.40;;;14.90;99.90;;;;;;7395785;19;20028;-79
2022/08/28 04:01:08;;;;;;;7.43;2.53;;;14.90;99.90;;;;;;7393990;19;20014;-79
2022/08/28 04:03:35;;;;;;;10.48;3.22;;;14.90;99.90;;;;;;7395285;19;20007;-79
2022/08/28 04:06:01;;;;;;;9.38;2.72;;;14.80;99.90;;;;;;7393539;19;20026;-79
2022/08/28 04:08:28;;;;;;;11.43;2.42;;;14.80;99.90;;;;;;7393807;19;20006;-79
2022/08/28 04:10:54;;;;;;;9.13;2.60;;;14.80;99.90;;;;;;7393910;19;20014;-78
2022/08/28 04:13:21;;;;;;;9.55;3.10;;;14.80;99.90;;;;;;7395124;19;20082;-79
2022/08/28 04:16:09;;;;;;;12.88;3.80;;;14.80;99.90;;;;;;7393686;19;20010;-78
2022/08/28 04:18:40;;;;;;;13.88;3.20;;;14.70;99.90;;;;;;7394587;19;20019;-78
2022/08/28 04:21:12;;;;;;;7.15;2.45;;;14.70;99.90;;;;;;7393002;19;20531;-79
2022/08/28 04:23:42;;;;;;;13.00;3.05;;;14.70;99.90;;;;;;7395528;19;20027;-78
2022/08/28 04:26:10;;;;;;;10.93;2.92;;;14.60;99.90;;;;;;7393587;19;20033;-79
2022/08/28 04:28:36;;;;;;;9.32;2.78;;;14.60;99.90;;;;;;7393005;19;20011;-79
2022/08/28 04:31:03;;;;;;;8.50;2.65;;;14.70;99.90;;;;;;7394957;19;20365;-79
2022/08/28 04:33:29;;;;;;;6.63;2.38;;;14.70;99.90;;;;;;7392986;19;20010;-79
2022/08/28 04:35:56;;;;;;;9.65;2.88;;;14.80;99.90;;;;;;7394388;19;20014;-79
2022/08/28 04:38:22;;;;;;;10.15;2.90;;;14.80;99.90;;;;;;7394314;19;20013;-79
2022/08/28 04:40:48;;;;;;;8.00;3.10;;;14.80;99.90;;;;;;7397673;19;20118;-79
2022/08/28 04:43:14;;;;;;;9.38;3.22;;;14.80;99.90;;;;;;7392639;19;20006;-78
2022/08/28 04:45:42;;;;;;;9.82;3.83;;;14.80;99.90;;;;;;7394476;19;20010;-79
2022/08/28 04:48:09;;;;;;;15.13;4.00;;;14.80;99.90;;;;;;7393114;19;20025;-79
2022/08/28 04:50:46;;;;;;;9.98;3.05;;;14.80;99.90;;;;;;7393521;19;20011;-79
2022/08/28 04:53:13;;;;;;;10.40;2.90;;;14.80;99.90;;;;;;7392423;19;20007;-79
2022/08/28 04:55:41;;;;;;;10.18;3.15;;;14.70;99.90;;;;;;7393952;19;20463;-78
2022/08/28 04:58:07;;;;;;;8.00;2.25;;;14.70;99.90;;;;;;7393710;19;20015;-79
2022/08/28 05:00:33;;;;;;;8.73;2.88;;;14.70;99.90;;;;;;7393686;19;20170;-78
2022/08/28 05:02:59;;;;;;;12.90;3.05;;;14.80;99.90;;;;;;7393701;19;20496;-78
2022/08/28 05:05:25;;;;;;;10.52;2.80;;;14.80;99.90;;;;;;7393463;19;20014;-79
2022/08/28 05:07:50;;;;;;;7.60;2.45;;;14.80;99.90;;;;;;7392115;19;20010;-79
2022/08/28 05:10:16;;;;;;;9.15;2.20;;;14.80;99.90;;;;;;7393205;19;20017;-79
2022/08/28 05:12:42;;;;;;;9.95;2.20;;;14.90;99.90;;;;;;7393652;19;20029;-79
2022/08/28 05:15:09;;;;;;;9.45;2.58;;;15.00;99.90;;;;;;7393614;19;20491;-78
2022/08/28 05:17:35;;;;;;;9.98;2.35;;;15.00;99.90;;;;;;7393877;19;20491;-79
2022/08/28 05:20:01;;;;;;;7.07;2.47;;;15.10;99.90;;;;;;7391853;19;20018;-79
2022/08/28 05:22:29;;;;;;;9.30;2.40;;;15.10;99.90;;;;;;7393334;19;20029;-79
2022/08/28 05:24:54;;;;;;;7.05;2.55;;;15.10;99.90;;;;;;7392867;19;20030;-78
2022/08/28 05:27:22;;;;;;;10.75;2.38;;;15.10;99.90;;;;;;7391994;19;20010;-78
2022/08/28 05:29:49;;;;;;;6.75;2.38;;;15.10;99.90;;;;;;7393579;19;20011;-79
2022/08/28 05:32:16;;;;;;;11.38;2.10;;;15.20;99.90;;;;;;7391895;19;20085;-79
2022/08/28 05:34:41;;;;;;;7.93;2.00;;;15.20;99.90;;;;;;7392766;19;20014;-79
2022/08/28 05:37:08;;;;;;;9.30;2.10;;;15.20;99.90;;;;;;7392868;19;20019;-79
2022/08/28 05:39:34;;;;;;;6.25;1.75;;;15.30;99.90;;;;;;7397367;19;20034;-79
2022/08/28 05:42:00;;;;;;;8.23;2.20;;;15.40;99.90;;;;;;7400206;19;20011;-78
2022/08/28 05:44:26;;;;;;;7.15;2.20;;;15.60;99.90;;;;;;7400324;19;20033;-79
2022/08/28 05:46:51;;;;;;;7.30;1.73;;;15.60;99.90;;;;;;7396982;19;20347;-79
2022/08/28 05:49:18;;;;;;;9.90;2.10;;;15.70;99.90;;;;;;7399951;19;20014;-79
2022/08/28 05:51:45;;;;;;;8.77;2.10;;;15.80;99.90;;;;;;7399603;19;20344;-79
2022/08/28 05:54:11;;;;;;;8.60;1.90;;;16.00;99.90;;;;;;7400119;19;20018;-78
2022/08/28 05:56:39;;;;;;;9.23;2.22;;;16.00;99.90;;;;;;7398464;19;20045;-78
2022/08/28 05:59:06;;;;;;;8.52;1.80;;;16.00;99.90;;;;;;7399702;19;20018;-79
2022/08/28 06:01:35;;;;;;;8.50;1.90;;;16.10;99.90;;;;;;7399639;19;20368;-79
2022/08/28 06:04:07;;;;;;;7.00;2.30;;;16.10;99.90;;;;;;7399499;19;20122;-79
2022/08/28 06:06:35;;;;;;;8.88;2.10;;;16.10;99.90;;;;;;7398370;19;20491;-79
2022/08/28 06:09:08;;;;;;;7.53;2.40;;;16.20;99.90;;;;;;7398978;19;20397;-79
2022/08/28 06:11:34;;;;;;;7.32;2.28;;;16.30;99.90;;;;;;7399175;19;20014;-79
2022/08/28 06:14:02;;;;;;;5.80;1.98;;;16.40;99.90;;;;;;7399485;19;20011;-79
2022/08/28 06:16:30;;;;;;;8.23;2.00;;;16.60;99.90;;;;;;7397437;19;20021;-79
2022/08/28 06:18:56;;;;;;;10.02;2.42;;;16.70;99.90;;;;;;7398124;19;20046;-79
2022/08/28 06:21:23;;;;;;;10.05;2.40;;;17.00;99.90;;;;;;7398793;19;20015;-79
2022/08/28 06:23:49;;;;;;;7.88;2.30;;;17.10;99.90;;;;;;7398748;19;20010;-79
2022/08/28 06:26:15;;;;;;;8.68;2.17;;;17.20;99.90;;;;;;7396660;19;20014;-79
2022/08/28 06:28:41;;;;;;;6.95;2.00;;;17.40;99.90;;;;;;7396964;19;20048;-79
2022/08/28 06:31:07;;;;;;;6.38;2.05;;;17.40;99.90;;;;;;7397161;19;20531;-79
2022/08/28 06:33:33;;;;;;;7.95;2.00;;;17.40;99.90;;;;;;7398235;19;20011;-79
2022/08/28 06:36:03;;;;;;;9.13;2.28;;;17.40;99.90;;;;;;7398695;19;20081;-79
2022/08/28 06:38:29;;;;;;;8.75;1.80;;;17.50;99.90;;;;;;7399200;19;20015;-79
2022/08/28 06:40:56;;;;;;;10.18;1.92;;;17.60;99.90;;;;;;7396881;19;20014;-79
2022/08/28 06:43:24;;;;;;;7.47;1.90;;;17.60;99.90;;;;;;7398140;19;20011;-78
2022/08/28 06:45:55;;;;;;;9.25;1.98;;;17.70;99.90;;;;;;7396485;19;20340;-80
2022/08/28 06:48:24;;;;;;;10.02;2.00;;;17.70;99.90;;;;;;7397089;19;20031;-79
2022/08/28 06:50:54;;;;;;;11.25;1.98;;;17.70;99.90;;;;;;7396367;19;20487;-79
2022/08/28 06:53:23;;;;;;;8.38;2.17;;;17.70;99.90;;;;;;7397805;19;20014;-79
2022/08/28 06:56:06;;;;;;;6.43;1.83;;;17.70;99.90;;;;;;7395929;19;20015;-79
2022/08/28 06:58:33;;;;;;;9.00;2.10;;;17.60;99.90;;;;;;7397527;19;20030;-79
2022/08/28 07:01:01;;;;;;;10.30;2.08;;;17.60;99.90;;;;;;7395749;19;20011;-79
2022/08/28 07:03:29;;;;;;;5.68;1.73;;;17.80;99.90;;;;;;7398005;19;20011;-80
2022/08/28 07:06:00;;;;;;;11.23;2.42;;;18.00;99.90;;;;;;7395918;19;20356;-79
2022/08/28 07:08:27;;;;;;;7.35;1.60;;;18.00;99.90;;;;;;7397248;19;20018;-79
2022/08/28 07:10:53;;;;;;;7.55;1.95;;;18.20;99.90;;;;;;7397403;19;20007;-80
2022/08/28 07:13:21;;;;;;;6.63;1.83;;;18.30;99.90;;;;;;7395495;19;20426;-79
2022/08/28 07:15:47;;;;;;;7.13;1.65;;;18.30;99.90;;;;;;7395781;19;20007;-79
2022/08/28 07:18:14;;;;;;;7.50;1.90;;;18.50;99.90;;;;;;7396754;19;20034;-79
2022/08/28 07:20:40;;;;;;;7.75;1.73;;;18.60;99.90;;;;;;7396970;19;20500;-80
2022/08/28 07:23:06;;;;;;;8.65;1.70;;;18.60;99.90;;;;;;7396909;19;20018;-80
2022/08/28 07:25:32;;;;;;;6.03;1.88;;;18.70;99.90;;;;;;7396597;19;20011;-79
2022/08/28 07:27:59;;;;;;;4.55;1.58;;;19.20;99.90;;;;;;7393033;19;20019;-80
2022/08/28 07:30:25;;;;;;;6.40;1.45;;;20.10;99.90;;;;;;7395415;19;20496;-79
2022/08/28 07:32:51;;;;;;;5.53;1.40;;;21.00;99.90;;;;;;7395532;19;20010;-80
2022/08/28 07:35:17;;;;;;;8.07;1.63;;;21.50;99.90;;;;;;7396624;19;20376;-80
2022/08/28 07:37:44;;;;;;;9.38;2.20;;;21.90;99.90;;;;;;7396734;19;20042;-80
2022/08/28 07:40:11;;;;;;;8.25;1.88;;;22.50;99.50;;;;;;7396364;19;20038;-80
2022/08/28 07:45:23;;;;;;;4.05;1.40;;;22.00;99.30;;;;;;7395049;19;20015;-79
2022/08/28 07:47:50;;;;;;;7.57;2.13;;;21.80;99.90;;;;;;7394789;19;20011;-79
2022/08/28 07:50:16;;;;;;;6.47;1.73;;;22.40;99.90;;;;;;7394423;19;20006;-79
2022/08/28 07:52:42;;;;;;;6.32;1.85;;;22.40;99.60;;;;;;7394052;19;20486;-80
2022/08/28 07:55:08;;;;;;;8.40;1.90;;;22.10;99.90;;;;;;7394236;19;20018;-80
2022/08/28 07:57:35;;;;;;;8.65;1.98;;;21.20;99.90;;;;;;7395649;19;20010;-79
2022/08/28 08:00:01;;;;;;;8.95;1.98;;;20.50;99.90;;;;;;7395647;19;20486;-79
2022/08/28 08:02:28;;;;;;;9.57;1.90;;;19.60;99.90;;;;;;7391925;19;20006;-80
2022/08/28 08:04:55;;;;;;;10.77;1.80;;;19.10;99.90;;;;;;7395432;19;20534;-80
2022/08/28 08:07:21;;;;;;;5.00;1.77;;;18.90;99.90;;;;;;7392693;19;20037;-79
2022/08/28 08:09:47;;;;;;;8.93;2.10;;;18.70;99.90;;;;;;7393780;19;20015;-79
2022/08/28 08:12:13;;;;;;;10.43;1.90;;;19.10;99.90;;;;;;7393666;19;20491;-80
2022/08/28 08:14:41;;;;;;;10.13;2.20;;;19.60;99.90;;;;;;7393609;19;20118;-79
2022/08/28 08:17:08;;;;;;;9.50;2.17;;;19.40;99.90;;;;;;7395112;19;20019;-79
2022/08/28 08:19:35;;;;;;;8.13;2.30;;;19.20;99.90;;;;;;7392461;19;20039;-79
2022/08/28 08:22:01;;;;;;;8.52;2.05;;;19.20;99.90;;;;;;7394643;19;20014;-79
2022/08/28 08:24:29;;;;;;;6.72;1.90;;;18.90;99.90;;;;;;7392999;19;20088;-79
2022/08/28 08:26:59;;;;;;;9.32;2.10;;;19.30;99.90;;;;;;7394101;19;20090;-80
2022/08/28 08:29:27;;;;;;;8.43;2.17;;;19.60;99.90;;;;;;7394311;19;20343;-79
2022/08/28 08:32:01;;;;;;;9.65;1.80;;;19.40;99.90;;;;;;7394399;19;20499;-79
2022/08/28 08:34:27;;;;;;;8.65;2.05;;;19.00;99.90;;;;;;7394193;19;20015;-79
2022/08/28 08:36:53;;;;;;;6.18;1.98;;;18.70;99.90;;;;;;7393356;19;20033;-79
2022/08/28 08:39:19;;;;;;;7.15;2.08;;;18.70;99.90;;;;;;7397404;19;20455;-79
2022/08/28 08:41:52;;;;;;;7.25;1.92;;;18.90;99.90;;;;;;7392819;19;20090;-78
2022/08/28 08:44:39;;;;;;;7.82;1.90;;;19.10;99.90;;;;;;7394566;19;20015;-79
2022/08/28 08:47:09;;;;;;;7.55;2.08;;;19.30;99.90;;;;;;7393079;19;20021;-79
2022/08/28 08:49:38;;;;;;;8.45;2.50;;;19.30;99.90;;;;;;7394216;19;20036;-80
2022/08/28 08:52:10;;;;;;;6.57;1.85;;;19.20;99.90;;;;;;7393848;19;20015;-80
2022/08/28 08:54:41;;;;;;;6.32;1.73;;;19.30;99.90;;;;;;7392306;19;20428;-80
2022/08/28 08:57:11;;;;;;;8.35;1.98;;;19.60;99.90;;;;;;7392352;19;20018;-80
2022/08/28 08:59:38;;;;;;;8.75;2.20;;;20.00;99.90;;;;;;7393632;19;20010;-80
2022/08/28 09:02:13;;;;;;;9.57;1.95;;;20.10;99.90;;;;;;7393363;19;20020;-79
2022/08/28 09:05:04;;;;;;;9.65;2.33;;;20.30;99.90;;;;;;7393462;19;20500;-80
2022/08/28 09:08:00;;;;;;;9.60;2.38;;;20.20;99.90;;;;;;7390393;19;20089;-80
2022/08/28 09:10:36;;;;;;;6.40;2.00;;;20.20;99.90;;;;;;7393358;19;20014;-80
2022/08/28 09:13:32;;;;;;;6.03;1.83;;;19.80;99.90;;;;;;7392680;19;20014;-79
2022/08/28 09:16:02;;;;;;;6.00;1.80;;;19.70;99.90;;;;;;7391501;19;20015;-79
2022/08/28 09:18:33;;;;;;;9.23;1.90;;;19.80;99.90;;;;;;7391643;19;20295;-79
2022/08/28 09:20:59;;;;;;;6.50;1.98;;;20.10;99.90;;;;;;7391305;19;20014;-79
2022/08/28 09:23:27;;;;;;;8.48;2.20;;;20.00;99.90;;;;;;7391409;19;20408;-79
2022/08/28 09:25:57;;;;;;;8.70;1.98;;;20.00;99.90;;;;;;7391371;19;20040;-79
2022/08/28 09:28:34;;;;;;;8.70;1.85;;;20.10;99.90;;;;;;7391298;19;20007;-79
2022/08/28 09:31:30;;;;;;;6.72;2.10;;;20.40;99.90;;;;;;7393904;19;20522;-79
2022/08/28 09:34:22;;;;;;;8.35;2.25;;;20.50;99.90;;;;;;7393001;19;20034;-80
2022/08/28 09:36:49;;;;;;;9.57;2.55;;;20.60;99.90;;;;;;7392357;19;20019;-80
2022/08/28 09:39:19;;;;;;;7.90;2.13;;;20.60;99.90;;;;;;7392738;19;20038;-89
2022/08/28 09:45:08;;;;;;;12.18;2.88;;;20.20;99.90;;;;;;7395996;19;20018;-90
2022/08/28 09:47:42;;;;;;;10.88;2.40;;;20.30;99.90;;;;;;7392096;19;20038;-89
2022/08/28 09:50:25;;;;;;;6.80;1.92;;;20.40;99.90;;;;;;7393435;19;20035;-88
2022/08/28 09:52:52;;;;;;;;;;;20.60;99.90;;;;;;7392467;19;20074;-84
2022/08/28 09:55:24;;;;;;;8.25;2.20;;;20.90;99.90;;;;;;7381065;19;19926;-85
2022/08/28 09:57:51;;;;;;;6.18;2.10;;;21.20;99.90;;;;;;7380782;19;20019;-83
2022/08/28 10:00:17;;;;;;;8.98;2.30;;;21.40;99.90;;;;;;7394860;19;20066;-83
2022/08/28 10:03:17;;;;;;;7.40;2.25;;;21.60;99.90;;;;;;7392548;19;20018;-83
2022/08/28 10:06:09;;;;;;;6.88;2.30;;;21.70;99.90;;;;;;7391961;19;20101;-83
2022/08/28 10:09:00;;;;;;;10.02;2.55;;;21.50;99.90;;;;;;7391009;19;20018;-88
2022/08/28 10:11:46;;;;;;;6.13;2.08;;;21.20;99.90;;;;;;7392670;19;20021;-84
2022/08/28 10:14:37;;;;;;;9.52;2.28;;;21.00;99.90;;;;;;7392041;19;20022;-86
2022/08/28 10:17:24;;;;;;;9.27;2.08;;;20.90;99.90;;;;;;7394052;19;20022;-89
2022/08/28 10:20:03;;;;;;;11.38;2.78;;;20.50;99.90;;;;;;7389629;19;20035;-83
2022/08/28 10:22:47;;;;;;;7.20;2.20;;;20.40;99.90;;;;;;7388452;19;20014;-89
2022/08/28 10:25:27;;;;;;;7.53;2.08;;;20.30;99.90;;;;;;7390942;19;20066;-85
2022/08/28 10:28:14;;;;;;;8.93;2.22;;;20.30;99.90;;;;;;7394475;19;20006;-84
2022/08/28 10:31:08;;;;;;;10.60;2.40;;;20.40;99.90;;;;;;7397775;19;20475;-85
2022/08/28 10:34:04;;;;;;;8.82;2.05;;;20.50;99.90;;;;;;7395569;19;20019;-87
2022/08/28 10:36:31;;;;;;;8.43;2.10;;;20.90;99.90;;;;;;7400597;19;20018;-84
2022/08/28 10:39:06;;;;;;;10.05;2.55;;;21.10;99.90;;;;;;7398232;19;20022;-86
2022/08/28 10:41:47;;;;;;;9.73;2.13;;;20.90;99.90;;;;;;7399688;19;20014;-86
2022/08/28 10:44:24;;;;;;;7.10;2.10;;;20.70;99.90;;;;;;7396135;19;20066;-83
2022/08/28 10:46:54;;;;;;;8.05;2.00;;;20.80;99.90;;;;;;7393909;19;20011;-84
2022/08/28 10:49:20;;;;;;;7.22;1.83;;;21.00;99.90;;;;;;7398682;19;20013;-85
2022/08/28 10:51:51;;;;;;;6.68;1.80;;;21.30;99.70;;;;;;7395306;19;20090;-83
2022/08/28 10:54:16;;;;;;;8.15;2.35;;;21.60;99.30;;;;;;7398463;19;20391;-87
2022/08/28 10:57:07;;;;;;;8.15;1.75;;;21.50;99.40;;;;;;7395733;19;20069;-84
2022/08/28 10:59:35;;;;;;;6.13;2.08;;;21.40;99.90;;;;;;7393773;19;20011;-83
2022/08/28 11:02:04;;;;;;;7.32;2.28;;;21.20;99.90;;;;;;7397379;19;20011;-83
2022/08/28 11:04:30;;;;;;;5.97;2.13;;;21.00;99.90;;;;;;7394944;19;20043;-84
2022/08/28 11:07:04;;;;;;;4.60;1.77;;;20.80;99.90;;;;;;7394906;19;20010;-84
2022/08/28 11:09:41;;;;;;;6.80;2.28;;;20.80;99.90;;;;;;7395834;19;20472;-81
2022/08/28 11:12:16;;;;;;;7.43;2.13;;;20.70;99.90;;;;;;7399947;19;20010;-79
2022/08/28 11:14:44;;;;;;;6.32;2.17;;;20.70;99.90;;;;;;7394745;19;20007;-80
2022/08/28 11:17:40;;;;;;;5.38;1.60;;;20.60;99.90;;;;;;7395521;19;20408;-79
2022/08/28 11:20:12;;;;;;;8.48;2.42;;;20.50;99.90;;;;;;7391688;19;20074;-80
2022/08/28 11:22:41;;;;;;;7.50;1.90;;;20.50;99.90;;;;;;7395904;19;20038;-86
2022/08/28 11:25:15;;;;;;;7.38;1.95;;;20.70;99.90;;;;;;7395463;19;20014;-87
2022/08/28 11:28:18;;;;;;;7.43;1.90;;;20.90;99.90;;;;;;7394944;19;20013;-84
2022/08/28 11:30:47;;;;;;;7.17;2.13;;;21.00;99.90;;;;;;7399899;19;20039;-84
2022/08/28 11:33:34;;;;;;;14.02;2.72;;;20.90;99.90;;;;;;7395440;19;20010;-84
2022/08/28 11:36:00;;;;;;;7.78;2.25;;;20.70;99.90;;;;;;7397278;19;20022;-88
2022/08/28 11:38:42;;;;;;;10.13;2.47;;;20.50;99.90;;;;;;7396967;19;20022;-81
2022/08/28 11:41:20;;;;;;;7.70;2.25;;;20.80;99.90;;;;;;7391831;19;20010;-81
2022/08/28 11:43:48;;;;;;;9.15;2.13;;;20.80;99.70;;;;;;7397526;19;20018;-84
2022/08/28 11:46:15;;;;;;;7.68;2.30;;;21.00;99.50;;;;;;7397643;19;20014;-84
2022/08/28 11:48:52;;;;;;;6.80;2.45;;;21.20;99.00;;;;;;7393751;19;20431;-83
2022/08/28 11:51:17;;;;;;;7.50;2.38;;;21.20;98.80;;;;;;7394331;19;20018;-83
2022/08/28 11:54:04;;;;;;;7.32;2.25;;;21.40;97.90;;;;;;7394686;19;20092;-82
2022/08/28 11:57:00;;;;;;;7.00;2.55;;;21.40;97.80;;;;;;7394257;19;20078;-81
2022/08/28 11:59:35;;;;;;;8.95;2.78;;;21.50;97.70;;;;;;7395118;19;20014;-81
2022/08/28 12:02:32;;;;;;;6.35;2.30;;;21.60;97.60;;;;;;7392605;19;20380;-81
2022/08/28 12:04:58;;;;;;;8.10;2.55;;;21.70;97.20;;;;;;7391580;19;20026;-81
2022/08/28 12:07:36;;;;;;;9.27;2.55;;;21.80;97.20;;;;;;7391861;19;20022;-85
2022/08/28 12:10:23;;;;;;;6.10;2.28;;;22.00;97.50;;;;;;7393520;19;20014;-83
2022/08/28 12:13:03;;;;;;;7.78;2.40;;;21.90;97.70;;;;;;7389442;19;20014;-85
2022/08/28 12:15:30;;;;;;;6.85;2.53;;;21.70;98.70;;;;;;7396772;19;20025;-83
2022/08/28 12:17:56;;;;;;;8.27;2.38;;;21.40;99.20;;;;;;7394276;19;20010;-84
2022/08/28 12:20:28;;;;;;;6.63;2.00;;;21.10;99.90;;;;;;7389167;19;20018;-83
2022/08/28 12:22:58;;;;;;;7.28;2.28;;;21.00;99.90;;;;;;7393891;19;20074;-84
2022/08/28 12:25:32;;;;;;;7.57;2.40;;;21.10;99.90;;;;;;7393005;19;20015;-84
2022/08/28 12:28:03;;;;;;;5.97;2.15;;;21.40;99.90;;;;;;7389633;19;20010;-83
2022/08/28 12:31:07;;;;;;;7.00;2.22;;;21.60;99.90;;;;;;7393939;19;20022;-85
2022/08/28 12:33:40;;;;;;;8.63;2.80;;;21.40;99.30;;;;;;7395503;19;20034;-83
2022/08/28 12:36:14;;;;;;;6.40;2.42;;;21.40;98.60;;;;;;7392544;19;20029;-83
2022/08/28 12:38:47;;;;;;;6.63;2.80;;;21.30;98.70;;;;;;7390764;19;20014;-83
2022/08/28 12:41:17;;;;;;;5.78;2.38;;;21.50;98.00;;;;;;7390354;19;20027;-81
2022/08/28 12:43:47;;;;;;;8.48;2.50;;;21.50;98.10;;;;;;7386495;19;20019;-82
2022/08/28 12:46:36;;;;;;;7.18;2.38;;;21.70;97.50;;;;;;7390296;19;20499;-82
2022/08/28 12:49:24;;;;;;;7.20;2.13;;;21.80;97.00;;;;;;7390763;19;20044;-83
2022/08/28 12:51:50;;;;;;;7.78;2.50;;;21.70;97.40;;;;;;7392873;19;20015;-82
2022/08/28 12:54:16;;;;;;;9.48;2.42;;;21.80;98.00;;;;;;7393330;19;20038;-82
2022/08/28 12:56:42;;;;;;;7.43;2.20;;;21.80;97.70;;;;;;7394926;19;20014;-84
2022/08/28 12:59:35;;;;;;;9.27;2.15;;;21.60;97.50;;;;;;7391306;19;20123;-82
2022/08/28 13:02:29;;;;;;;7.32;2.05;;;21.70;98.60;;;;;;7395589;19;20474;-82
2022/08/28 13:05:10;;;;;;;6.45;2.08;;;21.80;98.90;;;;;;7391043;19;20021;-83
2022/08/28 13:07:44;;;;;;;6.55;2.13;;;22.10;98.60;;;;;;7392140;19;20014;-80
2022/08/28 13:10:24;;;;;;;6.90;2.03;;;22.20;98.10;;;;;;7392862;19;20364;-81
2022/08/28 13:13:05;;;;;;;4.47;1.48;;;22.00;97.90;;;;;;7393558;19;20011;-81